KLCI

Laconia Municipal Airport

Laconia, New Hampshire, USA
METAR KLCI 172356Z AUTO 29007KT 250V320 10SM FEW100 06/02 A2983 RMK AO2 SLPNO 60009 T00560017 10117 20056 51029
Observed Flight Rules
Oct-17 @ 23:56 UTC (49 minutes ago) Visual Flight Rules
Wind Visibility Clouds
290° at 7 knots 10 miles
  • Few at 10,000' AGL
Temperatures Readings
Current 6°C / 43°F
Dewpoint 2°C / 36°F
Humidity 76%
Altimeter 29.83" Hg
Pressure 1010 hPa
Elevation 166
METAR KLCI 172356Z AUTO 29007KT 250V320 10SM FEW100 06/02 A2983 RMK AO2 SLPNO 60009 T00560017 10117 20056 51029
Observed Flight Rules
Oct-17 @ 23:56 UTC
(49 minutes ago)
VFR
Wind Visibility
290° at 7 knots 10 miles
Clouds
  • Few at 10,000' AGL
Temperature Dewpoint
6°C / 43°F 2°C / 36°F
Humidity Altimeter Pressure
76% 29.83" Hg 1010 hPa